createdAt,value
2023-05-18T00:00:10.295Z,0.00
2023-05-18T00:01:10.201Z,0.00
2023-05-18T00:02:31.143Z,0.00
2023-05-18T00:03:10.133Z,0.00
2023-05-18T00:04:09.982Z,0.00
2023-05-18T00:05:09.853Z,0.00
2023-05-18T00:06:09.788Z,0.00
2023-05-18T00:07:09.688Z,0.00
2023-05-18T00:08:30.589Z,0.00
2023-05-18T00:09:09.523Z,0.00
2023-05-18T00:10:09.472Z,0.00
2023-05-18T00:11:09.349Z,0.00
2023-05-18T00:12:09.282Z,0.00
2023-05-18T00:13:09.191Z,0.00
2023-05-18T00:14:30.092Z,0.00
2023-05-18T00:15:09.088Z,0.00
2023-05-18T00:16:08.980Z,0.00
2023-05-18T00:17:08.863Z,0.00
2023-05-18T00:18:08.820Z,0.00
2023-05-18T00:19:08.780Z,0.00
2023-05-18T00:20:29.600Z,0.00
2023-05-18T00:21:08.539Z,0.00
2023-05-18T00:22:08.458Z,0.00
2023-05-18T00:23:08.373Z,0.00
2023-05-18T00:24:08.279Z,0.00
2023-05-18T00:25:08.207Z,0.00
2023-05-18T00:26:29.113Z,0.00
2023-05-18T00:27:08.044Z,0.00
2023-05-18T00:28:07.964Z,0.00
2023-05-18T00:29:07.865Z,0.00
2023-05-18T00:30:07.775Z,0.00
2023-05-18T00:31:07.813Z,0.00
2023-05-18T00:32:28.603Z,0.00
2023-05-18T00:33:07.581Z,0.00
2023-05-18T00:34:07.462Z,0.00
2023-05-18T00:35:07.387Z,0.00
2023-05-18T00:36:07.288Z,0.00
2023-05-18T00:37:07.230Z,0.00
2023-05-18T00:38:28.103Z,0.00
2023-05-18T00:39:07.041Z,0.00
2023-05-18T00:40:07.010Z,0.00
2023-05-18T00:41:06.895Z,0.00
2023-05-18T00:42:06.813Z,0.00
2023-05-18T00:43:06.720Z,0.00
2023-05-18T00:44:27.610Z,0.00
2023-05-18T00:45:06.538Z,0.00
2023-05-18T00:46:06.482Z,0.00
2023-05-18T00:47:06.393Z,0.00
2023-05-18T00:48:06.346Z,0.00
2023-05-18T00:49:06.219Z,0.00
2023-05-18T00:50:27.130Z,0.00
2023-05-18T00:51:06.078Z,0.00
2023-05-18T00:52:05.961Z,0.00
2023-05-18T00:53:05.876Z,0.00
2023-05-18T00:54:05.800Z,0.00
2023-05-18T00:55:05.725Z,0.00
2023-05-18T00:56:26.650Z,0.00
2023-05-18T00:57:05.592Z,0.00
2023-05-18T00:58:05.492Z,0.00
2023-05-18T00:59:05.412Z,0.00
2023-05-18T01:00:05.302Z,0.00
2023-05-18T01:01:05.276Z,0.00
2023-05-18T01:02:26.143Z,0.00
2023-05-18T01:03:05.101Z,0.00
2023-05-18T01:04:05.064Z,0.00
2023-05-18T01:05:04.904Z,0.00
2023-05-18T01:06:04.806Z,0.00
2023-05-18T01:07:04.724Z,0.00
2023-05-18T01:08:25.615Z,0.00
2023-05-18T01:09:04.572Z,0.00
2023-05-18T01:10:04.457Z,0.00
2023-05-18T01:11:04.421Z,0.00
2023-05-18T01:12:04.314Z,0.00
2023-05-18T01:13:04.225Z,0.00
2023-05-18T01:14:25.120Z,0.00
2023-05-18T01:15:04.058Z,0.00
2023-05-18T01:16:03.973Z,0.00
2023-05-18T01:17:03.960Z,0.00
2023-05-18T01:18:03.911Z,0.00
2023-05-18T01:19:03.754Z,0.00
2023-05-18T01:20:24.614Z,0.00
2023-05-18T01:21:03.561Z,0.00
2023-05-18T01:22:03.474Z,0.00
2023-05-18T01:23:03.408Z,0.00
2023-05-18T01:24:03.312Z,0.00
2023-05-18T01:25:03.232Z,0.00
2023-05-18T01:26:24.116Z,0.00
2023-05-18T01:27:03.061Z,0.00
2023-05-18T01:28:02.965Z,0.00
2023-05-18T01:29:02.930Z,0.00
2023-05-18T01:30:02.798Z,0.00
2023-05-18T01:31:02.746Z,0.00
2023-05-18T01:32:23.656Z,0.00
2023-05-18T01:33:02.592Z,0.00
2023-05-18T01:34:02.458Z,0.00
2023-05-18T01:35:02.394Z,0.00
2023-05-18T01:36:02.316Z,0.00
2023-05-18T01:37:02.225Z,0.00
2023-05-18T01:38:23.131Z,0.00
2023-05-18T01:39:02.171Z,0.00
2023-05-18T01:40:01.968Z,0.00
2023-05-18T01:41:01.915Z,0.00
2023-05-18T01:42:01.812Z,0.00
2023-05-18T01:43:01.734Z,0.00
2023-05-18T01:44:22.624Z,0.00
2023-05-18T01:45:01.565Z,0.00
2023-05-18T01:46:01.526Z,0.00
2023-05-18T01:47:01.380Z,0.00
2023-05-18T01:48:01.329Z,0.00
2023-05-18T01:49:01.222Z,0.00
2023-05-18T01:50:22.120Z,0.00
2023-05-18T01:51:01.067Z,0.00
2023-05-18T01:52:00.961Z,0.00
2023-05-18T01:53:00.885Z,0.00
2023-05-18T01:54:00.811Z,0.00
2023-05-18T01:55:00.717Z,0.00
2023-05-18T01:56:21.619Z,0.00
2023-05-18T01:57:01.225Z,0.00
2023-05-18T01:58:00.471Z,0.00
2023-05-18T01:59:00.388Z,0.00
2023-05-18T02:00:00.385Z,0.00
2023-05-18T02:01:00.216Z,0.00
2023-05-18T02:02:21.175Z,0.00
2023-05-18T02:03:00.155Z,0.00
2023-05-18T02:04:00.177Z,0.00
2023-05-18T02:04:59.904Z,0.00
2023-05-18T02:05:59.805Z,0.00
2023-05-18T02:06:59.720Z,0.00
2023-05-18T02:08:20.608Z,0.00
2023-05-18T02:08:59.558Z,0.00
2023-05-18T02:09:59.476Z,0.00
2023-05-18T02:10:59.382Z,0.00
2023-05-18T02:11:59.287Z,0.00
2023-05-18T02:12:59.205Z,0.00
2023-05-18T02:14:20.102Z,0.00
2023-05-18T02:14:59.050Z,0.00
2023-05-18T02:15:59.015Z,0.00
2023-05-18T02:16:58.890Z,0.00
2023-05-18T02:17:58.829Z,0.00
2023-05-18T02:18:58.809Z,0.00
2023-05-18T02:20:19.599Z,0.00
2023-05-18T02:20:58.568Z,0.00
2023-05-18T02:21:58.467Z,0.00
2023-05-18T02:22:58.378Z,0.00
2023-05-18T02:23:58.303Z,0.00
2023-05-18T02:24:58.200Z,0.00
2023-05-18T02:26:19.100Z,0.00
2023-05-18T02:26:58.031Z,0.00
2023-05-18T02:27:57.959Z,0.00
2023-05-18T02:28:57.864Z,0.00
2023-05-18T02:29:57.799Z,0.00
2023-05-18T02:30:57.699Z,0.00
2023-05-18T02:32:18.595Z,0.00
2023-05-18T02:32:57.563Z,0.00
2023-05-18T02:33:57.458Z,0.00
2023-05-18T02:34:57.367Z,0.00
2023-05-18T02:35:57.292Z,0.00
2023-05-18T02:36:57.200Z,0.00
2023-05-18T02:38:18.102Z,0.00
2023-05-18T02:38:57.036Z,0.00
2023-05-18T02:39:56.950Z,0.00
2023-05-18T02:40:56.883Z,0.00
2023-05-18T02:41:56.776Z,0.00
2023-05-18T02:42:56.708Z,0.00
2023-05-18T02:44:17.594Z,0.00
2023-05-18T02:44:56.557Z,0.00
2023-05-18T02:45:56.456Z,0.00
2023-05-18T02:46:56.362Z,0.00
2023-05-18T02:47:56.332Z,0.00
2023-05-18T02:48:56.218Z,0.00
2023-05-18T02:50:17.094Z,0.00
2023-05-18T02:50:56.033Z,0.00
2023-05-18T02:51:55.962Z,0.00
2023-05-18T02:52:55.944Z,0.00
2023-05-18T02:53:55.776Z,0.00
2023-05-18T02:54:55.707Z,0.00
2023-05-18T02:56:16.581Z,0.00
2023-05-18T02:56:55.546Z,0.00
2023-05-18T02:57:55.441Z,0.00
2023-05-18T02:58:55.358Z,0.00
2023-05-18T02:59:55.274Z,0.00
2023-05-18T03:00:55.286Z,0.00
2023-05-18T03:02:16.098Z,0.00
2023-05-18T03:02:55.116Z,0.00
2023-05-18T03:03:54.925Z,0.00
2023-05-18T03:04:54.857Z,0.00
2023-05-18T03:05:54.778Z,0.00
2023-05-18T03:06:54.707Z,0.00
2023-05-18T03:08:15.578Z,0.00
2023-05-18T03:08:54.618Z,0.00
2023-05-18T03:09:54.470Z,0.00
2023-05-18T03:10:54.349Z,0.00
2023-05-18T03:11:54.268Z,0.00
2023-05-18T03:12:54.189Z,0.00
2023-05-18T03:14:15.093Z,0.00
2023-05-18T03:14:54.023Z,0.00
2023-05-18T03:15:53.946Z,0.00
2023-05-18T03:16:53.891Z,0.00
2023-05-18T03:17:53.802Z,0.00
2023-05-18T03:18:53.722Z,0.00
2023-05-18T03:20:14.631Z,0.00
2023-05-18T03:20:53.522Z,0.00
2023-05-18T03:21:53.509Z,0.00
2023-05-18T03:22:53.367Z,0.00
2023-05-18T03:23:53.264Z,0.00
2023-05-18T03:24:53.182Z,0.00
2023-05-18T03:26:14.083Z,0.00
2023-05-18T03:26:53.029Z,0.00
2023-05-18T03:27:52.922Z,0.00
2023-05-18T03:28:52.837Z,0.00
2023-05-18T03:29:52.748Z,0.00
2023-05-18T03:30:52.709Z,0.00
2023-05-18T03:32:13.565Z,0.00
2023-05-18T03:32:52.535Z,0.00
2023-05-18T03:33:52.427Z,0.00
2023-05-18T03:34:52.345Z,0.00
2023-05-18T03:35:52.312Z,0.00
2023-05-18T03:36:52.196Z,0.00
2023-05-18T03:38:13.086Z,0.00
2023-05-18T03:38:52.010Z,0.00
2023-05-18T03:39:51.923Z,0.00
2023-05-18T03:40:51.852Z,0.00
2023-05-18T03:41:51.752Z,0.00
2023-05-18T03:42:51.690Z,0.00
2023-05-18T03:44:12.585Z,0.00
2023-05-18T03:44:51.491Z,0.00
2023-05-18T03:45:51.415Z,0.00
2023-05-18T03:46:51.471Z,0.00
2023-05-18T03:47:51.259Z,0.00
2023-05-18T03:48:51.165Z,0.00
2023-05-18T03:50:14.314Z,0.00
2023-05-18T03:50:50.993Z,0.00
2023-05-18T03:51:50.907Z,0.00
2023-05-18T03:52:50.830Z,0.00
2023-05-18T03:53:50.755Z,0.00
2023-05-18T03:54:50.655Z,0.00
2023-05-18T03:56:11.565Z,0.00
2023-05-18T03:56:50.491Z,0.00
2023-05-18T03:57:50.392Z,0.00
2023-05-18T03:58:50.331Z,0.00
2023-05-18T03:59:50.233Z,0.00
2023-05-18T04:00:50.149Z,5.63
2023-05-18T04:02:11.116Z,5.63
2023-05-18T04:02:50.107Z,5.63
2023-05-18T04:03:49.977Z,5.63
2023-05-18T04:04:49.826Z,5.63
2023-05-18T04:05:49.728Z,5.63
2023-05-18T04:06:49.649Z,5.63
2023-05-18T04:08:10.558Z,5.63
2023-05-18T04:08:49.473Z,5.63
2023-05-18T04:09:49.391Z,5.63
2023-05-18T04:10:49.313Z,5.63
2023-05-18T04:11:49.221Z,5.63
2023-05-18T04:12:49.154Z,5.63
2023-05-18T04:14:10.035Z,5.63
2023-05-18T04:14:48.978Z,5.63
2023-05-18T04:15:48.890Z,5.63
2023-05-18T04:16:48.915Z,5.63
2023-05-18T04:17:48.739Z,5.63
2023-05-18T04:18:48.683Z,5.63
2023-05-18T04:20:09.540Z,5.63
2023-05-18T04:20:48.471Z,5.63
2023-05-18T04:21:48.379Z,5.63
2023-05-18T04:22:48.766Z,5.63
2023-05-18T04:23:48.235Z,5.63
2023-05-18T04:24:48.126Z,5.63
2023-05-18T04:26:09.074Z,5.63
2023-05-18T04:26:47.969Z,5.63
2023-05-18T04:27:50.517Z,5.63
2023-05-18T04:28:47.807Z,5.63
2023-05-18T04:29:47.710Z,5.63
2023-05-18T04:30:47.630Z,11.25
2023-05-18T04:32:08.680Z,11.25
2023-05-18T04:32:47.498Z,11.25
2023-05-18T04:33:47.386Z,11.25
2023-05-18T04:34:47.299Z,11.25
2023-05-18T04:35:47.214Z,11.25
2023-05-18T04:36:47.142Z,11.25
2023-05-18T04:38:08.010Z,11.25
2023-05-18T04:38:46.964Z,11.25
2023-05-18T04:39:46.872Z,11.25
2023-05-18T04:40:46.780Z,11.25
2023-05-18T04:41:46.717Z,11.25
2023-05-18T04:42:46.626Z,11.25
2023-05-18T04:44:07.523Z,11.25
2023-05-18T04:44:46.462Z,11.25
2023-05-18T04:45:46.409Z,11.25
2023-05-18T04:46:46.301Z,11.25
2023-05-18T04:47:46.265Z,11.25
2023-05-18T04:48:46.099Z,11.25
2023-05-18T04:50:07.017Z,11.25
2023-05-18T04:50:45.948Z,11.25
2023-05-18T04:51:45.872Z,11.25
2023-05-18T04:52:45.768Z,11.25
2023-05-18T04:53:45.685Z,11.25
2023-05-18T04:54:45.611Z,11.25
2023-05-18T04:56:06.536Z,11.25
2023-05-18T04:56:45.434Z,16.88
2023-05-18T04:57:45.365Z,16.88
2023-05-18T04:58:45.288Z,16.88
2023-05-18T04:59:45.191Z,16.88
2023-05-18T05:00:45.101Z,16.88
2023-05-18T05:02:06.010Z,16.88
2023-05-18T05:02:45.077Z,16.88
2023-05-18T05:03:45.065Z,16.88
2023-05-18T05:04:44.765Z,16.88
2023-05-18T05:05:44.687Z,22.50
2023-05-18T05:06:44.598Z,22.50
2023-05-18T05:08:05.496Z,22.50
2023-05-18T05:08:44.436Z,22.50
2023-05-18T05:09:44.360Z,22.50
2023-05-18T05:10:44.258Z,22.50
2023-05-18T05:11:44.172Z,22.50
2023-05-18T05:12:44.105Z,22.50
2023-05-18T05:14:05.005Z,16.88
2023-05-18T05:14:43.917Z,16.88
2023-05-18T05:15:43.911Z,16.88
2023-05-18T05:16:43.745Z,16.88
2023-05-18T05:17:43.748Z,16.88
2023-05-18T05:18:45.834Z,16.88
2023-05-18T05:20:04.498Z,16.88
2023-05-18T05:20:43.429Z,16.88
2023-05-18T05:21:43.336Z,16.88
2023-05-18T05:22:43.289Z,16.88
2023-05-18T05:23:43.166Z,22.50
2023-05-18T05:24:43.089Z,22.50
2023-05-18T05:26:03.984Z,22.50
2023-05-18T05:26:42.916Z,22.50
2023-05-18T05:27:42.829Z,22.50
2023-05-18T05:28:42.759Z,22.50
2023-05-18T05:29:42.656Z,22.50
2023-05-18T05:30:42.577Z,22.50
2023-05-18T05:32:03.894Z,22.50
2023-05-18T05:32:42.442Z,22.50
2023-05-18T05:33:42.321Z,22.50
2023-05-18T05:34:42.260Z,22.50
2023-05-18T05:35:42.165Z,22.50
2023-05-18T05:36:42.085Z,22.50
2023-05-18T05:38:02.987Z,22.50
2023-05-18T05:38:41.920Z,22.50
2023-05-18T05:39:41.841Z,22.50
2023-05-18T05:40:41.744Z,22.50
2023-05-18T05:41:41.667Z,28.13
2023-05-18T05:42:41.573Z,28.13
2023-05-18T05:44:02.486Z,28.13
2023-05-18T05:44:41.413Z,28.13
2023-05-18T05:45:41.334Z,28.13
2023-05-18T05:46:41.270Z,28.13
2023-05-18T05:47:41.203Z,28.13
2023-05-18T05:48:41.079Z,28.13
2023-05-18T05:50:01.998Z,28.13
2023-05-18T05:50:40.928Z,28.13
2023-05-18T05:51:40.828Z,28.13
2023-05-18T05:52:40.760Z,28.13
2023-05-18T05:53:40.655Z,28.13
2023-05-18T05:54:40.578Z,28.13
2023-05-18T05:56:01.487Z,28.13
2023-05-18T05:56:40.415Z,28.13
2023-05-18T05:57:40.343Z,28.13
2023-05-18T05:58:40.277Z,28.13
2023-05-18T05:59:40.188Z,28.13
2023-05-18T06:00:40.813Z,28.13
2023-05-18T06:02:01.005Z,28.13
2023-05-18T06:02:39.997Z,28.13
2023-05-18T06:03:39.905Z,28.13
2023-05-18T06:04:39.771Z,28.13
2023-05-18T06:05:39.678Z,28.13
2023-05-18T06:06:39.589Z,33.75
2023-05-18T06:08:00.493Z,33.75
2023-05-18T06:08:39.428Z,33.75
2023-05-18T06:09:39.342Z,33.75
2023-05-18T06:10:39.349Z,33.75
2023-05-18T06:11:39.191Z,33.75
2023-05-18T06:12:39.092Z,33.75
2023-05-18T06:13:59.986Z,33.75
2023-05-18T06:14:38.922Z,33.75
2023-05-18T06:15:38.842Z,33.75
2023-05-18T06:16:38.784Z,33.75
2023-05-18T06:17:38.736Z,33.75
2023-05-18T06:18:38.615Z,33.75
2023-05-18T06:19:59.507Z,33.75
2023-05-18T06:20:38.418Z,33.75
2023-05-18T06:21:38.344Z,33.75
2023-05-18T06:22:38.271Z,39.38
2023-05-18T06:23:41.028Z,39.38
2023-05-18T06:24:38.101Z,39.38
2023-05-18T06:25:58.987Z,39.38
2023-05-18T06:26:37.956Z,39.38
2023-05-18T06:27:37.867Z,39.38
2023-05-18T06:28:37.763Z,39.38
2023-05-18T06:29:37.706Z,39.38
2023-05-18T06:30:37.607Z,39.38
2023-05-18T06:31:58.566Z,39.38
2023-05-18T06:32:37.531Z,39.38
2023-05-18T06:33:37.384Z,45.00
2023-05-18T06:34:37.288Z,45.00
2023-05-18T06:35:37.238Z,45.00
2023-05-18T06:36:37.106Z,45.00
2023-05-18T06:37:58.013Z,45.00
2023-05-18T06:38:36.954Z,45.00
2023-05-18T06:39:36.879Z,45.00
2023-05-18T06:40:36.791Z,45.00
2023-05-18T06:41:36.715Z,45.00
2023-05-18T06:42:36.626Z,45.00
2023-05-18T06:43:57.516Z,45.00
2023-05-18T06:44:36.464Z,50.63
2023-05-18T06:45:42.882Z,50.63
2023-05-18T06:46:36.365Z,50.63
2023-05-18T06:47:36.247Z,50.63
2023-05-18T06:48:36.158Z,50.63
2023-05-18T06:49:57.059Z,50.63
2023-05-18T06:50:35.968Z,56.25
2023-05-18T06:51:35.903Z,56.25
2023-05-18T06:52:35.800Z,56.25
2023-05-18T06:53:35.718Z,56.25
2023-05-18T06:54:35.641Z,56.25
2023-05-18T06:55:56.555Z,61.88
2023-05-18T06:56:35.507Z,61.88
2023-05-18T06:57:35.401Z,61.88
2023-05-18T06:58:35.331Z,61.88
2023-05-18T06:59:35.243Z,67.50
2023-05-18T07:00:35.151Z,67.50
2023-05-18T07:01:56.162Z,67.50
2023-05-18T07:02:35.047Z,67.50
2023-05-18T07:03:34.902Z,73.13
2023-05-18T07:04:34.825Z,73.13
2023-05-18T07:05:36.923Z,78.75
2023-05-18T07:06:34.679Z,78.75
2023-05-18T07:07:55.600Z,78.75
2023-05-18T07:08:34.518Z,84.38
2023-05-18T07:09:34.406Z,84.38
2023-05-18T07:10:34.337Z,90.00
2023-05-18T07:11:34.244Z,90.00
2023-05-18T07:12:34.170Z,90.00
2023-05-18T07:13:55.062Z,95.63
2023-05-18T07:14:34.002Z,95.63
2023-05-18T07:15:34.195Z,101.25
2023-05-18T07:16:33.913Z,101.25
2023-05-18T07:17:33.761Z,101.25
2023-05-18T07:18:33.693Z,106.88
2023-05-18T07:19:54.574Z,106.88
2023-05-18T07:20:33.544Z,112.50
2023-05-18T07:21:33.434Z,118.13
2023-05-18T07:22:33.388Z,118.13
2023-05-18T07:23:33.265Z,123.75
2023-05-18T07:24:33.194Z,129.38
2023-05-18T07:25:54.112Z,135.00
2023-05-18T07:26:33.046Z,135.00
2023-05-18T07:27:32.947Z,140.63
2023-05-18T07:28:32.888Z,140.63
2023-05-18T07:29:32.793Z,146.25
2023-05-18T07:30:32.703Z,146.25
2023-05-18T07:31:53.728Z,151.88
2023-05-18T07:32:32.609Z,151.88
2023-05-18T07:33:32.463Z,151.88
2023-05-18T07:34:32.389Z,151.88
2023-05-18T07:35:32.684Z,157.50
2023-05-18T07:36:32.247Z,157.50
2023-05-18T07:37:53.118Z,157.50
2023-05-18T07:38:32.060Z,157.50
2023-05-18T07:39:31.982Z,163.13
2023-05-18T07:40:31.914Z,163.13
2023-05-18T07:41:31.837Z,163.13
2023-05-18T07:42:31.743Z,168.75
2023-05-18T07:43:52.720Z,168.75
2023-05-18T07:44:31.596Z,168.75
2023-05-18T07:45:31.866Z,168.75
2023-05-18T07:46:31.473Z,174.38
2023-05-18T07:47:31.410Z,174.38
2023-05-18T07:48:31.268Z,174.38
2023-05-18T07:49:52.154Z,180.00
2023-05-18T07:50:31.113Z,180.00
2023-05-18T07:51:31.013Z,180.00
2023-05-18T07:52:30.974Z,185.63
2023-05-18T07:53:30.878Z,185.63
2023-05-18T07:54:30.784Z,185.63
2023-05-18T07:55:51.671Z,185.63
2023-05-18T07:56:30.651Z,191.25
2023-05-18T07:57:30.575Z,191.25
2023-05-18T07:58:30.477Z,191.25
2023-05-18T07:59:30.399Z,196.88
2023-05-18T08:00:30.321Z,196.88
2023-05-18T08:01:51.224Z,196.88
2023-05-18T08:02:33.624Z,196.88
2023-05-18T08:03:30.169Z,202.50
2023-05-18T08:04:30.122Z,202.50
2023-05-18T08:05:30.109Z,196.88
2023-05-18T08:06:29.833Z,185.63
2023-05-18T08:07:50.734Z,208.13
2023-05-18T08:08:29.690Z,213.75
2023-05-18T08:09:29.608Z,208.13
2023-05-18T08:10:29.528Z,213.75
2023-05-18T08:11:29.439Z,185.63
2023-05-18T08:12:29.391Z,174.38
2023-05-18T08:13:50.265Z,196.88
2023-05-18T08:14:29.206Z,185.63
2023-05-18T08:15:29.410Z,202.50
2023-05-18T08:16:29.111Z,185.63
2023-05-18T08:17:28.997Z,180.00
2023-05-18T08:18:28.891Z,219.38
2023-05-18T08:19:49.793Z,213.75
2023-05-18T08:20:28.726Z,213.75
2023-05-18T08:21:28.648Z,208.13
2023-05-18T08:22:28.577Z,213.75
2023-05-18T08:23:28.509Z,185.63
2023-05-18T08:24:28.422Z,151.88
2023-05-18T08:25:49.319Z,191.25
2023-05-18T08:26:28.279Z,196.88
2023-05-18T08:27:28.181Z,213.75
2023-05-18T08:28:28.112Z,225.00
2023-05-18T08:29:28.036Z,219.38
2023-05-18T08:30:27.951Z,202.50
2023-05-18T08:31:49.830Z,191.25
2023-05-18T08:32:27.894Z,191.25
2023-05-18T08:33:27.721Z,208.13
2023-05-18T08:34:27.640Z,196.88
2023-05-18T08:35:27.563Z,208.13
2023-05-18T08:36:27.499Z,191.25
2023-05-18T08:37:48.386Z,180.00
2023-05-18T08:38:27.311Z,168.75
2023-05-18T08:39:27.256Z,174.38
2023-05-18T08:40:27.187Z,174.38
2023-05-18T08:41:27.080Z,174.38
2023-05-18T08:42:34.454Z,168.75
2023-05-18T08:43:47.914Z,168.75
2023-05-18T08:44:26.888Z,180.00
2023-05-18T08:45:26.778Z,191.25
2023-05-18T08:46:26.707Z,191.25
2023-05-18T08:47:26.695Z,180.00
2023-05-18T08:48:28.221Z,174.38
2023-05-18T08:49:47.445Z,191.25
2023-05-18T08:50:26.404Z,230.63
2023-05-18T08:51:26.318Z,247.50
2023-05-18T08:52:26.227Z,219.38
2023-05-18T08:53:26.151Z,78.75
2023-05-18T08:54:26.076Z,78.75
2023-05-18T08:55:46.973Z,275.63
2023-05-18T08:56:25.930Z,270.00
2023-05-18T08:57:25.864Z,264.38
2023-05-18T08:58:25.770Z,118.13
2023-05-18T08:59:25.714Z,90.00
2023-05-18T09:00:25.668Z,236.25
2023-05-18T09:01:46.563Z,270.00
2023-05-18T09:02:25.473Z,275.63
2023-05-18T09:03:25.400Z,253.13
2023-05-18T09:04:25.379Z,225.00
2023-05-18T09:05:25.307Z,241.88
2023-05-18T09:06:25.152Z,219.38
2023-05-18T09:07:46.052Z,230.63
2023-05-18T09:08:24.990Z,225.00
2023-05-18T09:09:24.919Z,219.38
2023-05-18T09:10:24.846Z,168.75
2023-05-18T09:11:24.756Z,208.13
2023-05-18T09:12:24.888Z,219.38
2023-05-18T09:13:45.601Z,213.75
2023-05-18T09:14:24.526Z,208.13
2023-05-18T09:15:24.457Z,191.25
2023-05-18T09:16:24.529Z,213.75
2023-05-18T09:17:24.295Z,202.50
2023-05-18T09:18:26.170Z,140.63
2023-05-18T09:19:45.128Z,180.00
2023-05-18T09:20:24.051Z,225.00
2023-05-18T09:21:24.000Z,236.25
2023-05-18T09:22:23.912Z,236.25
2023-05-18T09:23:23.842Z,219.38
2023-05-18T09:24:24.955Z,213.75
2023-05-18T09:25:44.664Z,258.75
2023-05-18T09:26:23.602Z,112.50
2023-05-18T09:27:23.579Z,208.13
2023-05-18T09:28:23.463Z,258.75
2023-05-18T09:29:23.376Z,292.50
2023-05-18T09:30:23.320Z,258.75
2023-05-18T09:31:44.244Z,247.50
2023-05-18T09:32:23.138Z,264.38
2023-05-18T09:33:23.165Z,270.00
2023-05-18T09:34:23.004Z,286.88
2023-05-18T09:35:22.917Z,270.00
2023-05-18T09:36:22.822Z,286.88
2023-05-18T09:37:43.734Z,101.25
2023-05-18T09:38:22.687Z,236.25
2023-05-18T09:39:22.597Z,253.13
2023-05-18T09:40:22.527Z,118.13
2023-05-18T09:41:22.457Z,151.88
2023-05-18T09:42:24.100Z,247.50
2023-05-18T09:43:43.282Z,241.88
2023-05-18T09:44:22.230Z,253.13
2023-05-18T09:45:22.145Z,247.50
2023-05-18T09:46:22.112Z,101.25
2023-05-18T09:47:22.074Z,101.25
2023-05-18T09:48:24.851Z,196.88
2023-05-18T09:49:42.851Z,191.25
2023-05-18T09:50:21.764Z,101.25
2023-05-18T09:51:21.701Z,157.50
2023-05-18T09:52:21.605Z,101.25
2023-05-18T09:53:21.544Z,270.00
2023-05-18T09:54:23.614Z,213.75
2023-05-18T09:55:42.371Z,202.50
2023-05-18T09:56:21.303Z,264.38
2023-05-18T09:57:21.250Z,241.88
2023-05-18T09:58:21.152Z,241.88
2023-05-18T09:59:21.088Z,90.00
2023-05-18T10:00:22.869Z,123.75
2023-05-18T10:01:41.916Z,84.38
2023-05-18T10:02:20.881Z,84.38
2023-05-18T10:03:20.778Z,84.38
2023-05-18T10:04:20.772Z,84.38
2023-05-18T10:05:20.743Z,95.63
2023-05-18T10:06:20.548Z,163.13
2023-05-18T10:07:41.453Z,275.63
2023-05-18T10:08:20.425Z,275.63
2023-05-18T10:09:20.320Z,230.63
2023-05-18T10:10:20.343Z,78.75
2023-05-18T10:11:20.191Z,78.75
2023-05-18T10:12:20.089Z,84.38
2023-05-18T10:13:41.000Z,84.38
2023-05-18T10:14:19.934Z,84.38
2023-05-18T10:15:19.858Z,95.63
2023-05-18T10:16:19.814Z,90.00
2023-05-18T10:17:19.748Z,101.25
2023-05-18T10:18:19.643Z,78.75
2023-05-18T10:19:40.530Z,146.25
2023-05-18T10:20:19.591Z,264.38
2023-05-18T10:21:19.408Z,73.13
2023-05-18T10:22:19.329Z,73.13
2023-05-18T10:23:19.246Z,73.13
2023-05-18T10:24:19.163Z,270.00
2023-05-18T10:25:40.079Z,90.00
2023-05-18T10:26:19.010Z,191.25
2023-05-18T10:27:18.938Z,78.75
2023-05-18T10:28:18.871Z,73.13
2023-05-18T10:29:18.782Z,78.75
2023-05-18T10:30:18.802Z,84.38
2023-05-18T10:31:39.624Z,90.00
2023-05-18T10:32:18.576Z,95.63
2023-05-18T10:33:28.596Z,90.00
2023-05-18T10:34:18.415Z,78.75
2023-05-18T10:35:18.335Z,264.38
2023-05-18T10:36:18.248Z,264.38
2023-05-18T10:37:39.155Z,247.50
2023-05-18T10:38:18.099Z,253.13
2023-05-18T10:39:18.027Z,253.13
2023-05-18T10:40:18.082Z,73.13
2023-05-18T10:41:17.887Z,61.88
2023-05-18T10:42:17.790Z,67.50
2023-05-18T10:43:38.717Z,73.13
2023-05-18T10:44:17.628Z,73.13
2023-05-18T10:45:17.567Z,78.75
2023-05-18T10:46:17.572Z,180.00
2023-05-18T10:47:17.504Z,241.88
2023-05-18T10:48:17.362Z,236.25
2023-05-18T10:49:38.238Z,236.25
2023-05-18T10:50:17.222Z,236.25
2023-05-18T10:51:17.130Z,230.63
2023-05-18T10:52:17.033Z,236.25
2023-05-18T10:53:16.968Z,236.25
2023-05-18T10:54:16.865Z,73.13
2023-05-18T10:55:37.787Z,247.50
2023-05-18T10:56:16.766Z,73.13
2023-05-18T10:57:16.643Z,225.00
2023-05-18T10:58:16.572Z,225.00
2023-05-18T10:59:16.520Z,225.00
2023-05-18T11:00:16.429Z,219.38
2023-05-18T11:01:37.376Z,219.38
2023-05-18T11:02:16.269Z,219.38
2023-05-18T11:03:16.265Z,219.38
2023-05-18T11:04:16.157Z,219.38
2023-05-18T11:05:16.112Z,219.38
2023-05-18T11:06:15.950Z,225.00
2023-05-18T11:07:36.881Z,196.88
2023-05-18T11:08:15.816Z,219.38
2023-05-18T11:09:15.734Z,225.00
2023-05-18T11:10:15.717Z,225.00
2023-05-18T11:11:18.025Z,225.00
2023-05-18T11:12:15.508Z,219.38
2023-05-18T11:13:36.408Z,219.38
2023-05-18T11:14:15.336Z,213.75
2023-05-18T11:15:15.276Z,219.38
2023-05-18T11:16:15.206Z,219.38
2023-05-18T11:17:15.129Z,225.00
2023-05-18T11:18:15.079Z,73.13
2023-05-18T11:19:35.952Z,230.63
2023-05-18T11:20:14.990Z,78.75
2023-05-18T11:21:14.832Z,50.63
2023-05-18T11:22:14.747Z,45.00
2023-05-18T11:23:14.685Z,45.00
2023-05-18T11:24:14.598Z,61.88
2023-05-18T11:25:35.508Z,213.75
2023-05-18T11:26:14.440Z,208.13
2023-05-18T11:27:14.381Z,208.13
2023-05-18T11:28:14.299Z,208.13
2023-05-18T11:29:14.238Z,208.13
2023-05-18T11:30:15.780Z,208.13
2023-05-18T11:31:35.081Z,208.13
2023-05-18T11:32:19.036Z,208.13
2023-05-18T11:33:14.029Z,208.13
2023-05-18T11:34:13.836Z,213.75
2023-05-18T11:35:13.775Z,213.75
2023-05-18T11:36:13.705Z,213.75
2023-05-18T11:37:34.592Z,213.75
2023-05-18T11:38:13.547Z,219.38
2023-05-18T11:39:13.465Z,219.38
2023-05-18T11:40:13.381Z,219.38
2023-05-18T11:41:13.321Z,230.63
2023-05-18T11:42:13.241Z,78.75
2023-05-18T11:43:34.143Z,123.75
2023-05-18T11:44:13.080Z,67.50
2023-05-18T11:45:13.035Z,61.88
2023-05-18T11:46:12.929Z,95.63
2023-05-18T11:47:12.865Z,219.38
2023-05-18T11:48:12.864Z,56.25
2023-05-18T11:49:33.686Z,67.50
2023-05-18T11:50:12.773Z,219.38
2023-05-18T11:51:12.558Z,219.38
2023-05-18T11:52:12.498Z,225.00
2023-05-18T11:53:12.395Z,230.63
2023-05-18T11:54:12.334Z,61.88
2023-05-18T11:55:33.226Z,56.25
2023-05-18T11:56:12.169Z,61.88
2023-05-18T11:57:12.094Z,219.38
2023-05-18T11:58:12.025Z,174.38
2023-05-18T11:59:11.956Z,90.00
2023-05-18T12:00:11.982Z,95.63
2023-05-18T12:01:32.775Z,45.00
2023-05-18T12:02:11.857Z,50.63
2023-05-18T12:03:11.697Z,208.13
2023-05-18T12:04:11.644Z,208.13
2023-05-18T12:05:11.502Z,67.50
2023-05-18T12:06:11.431Z,67.50
2023-05-18T12:07:32.598Z,202.50
2023-05-18T12:08:11.281Z,202.50
2023-05-18T12:09:11.205Z,106.88
2023-05-18T12:10:11.174Z,202.50
2023-05-18T12:11:11.057Z,208.13
2023-05-18T12:12:10.961Z,50.63
2023-05-18T12:13:31.870Z,84.38
2023-05-18T12:14:10.814Z,208.13
2023-05-18T12:15:10.748Z,208.13
2023-05-18T12:16:10.671Z,118.13
2023-05-18T12:17:10.681Z,78.75
2023-05-18T12:18:10.569Z,151.88
2023-05-18T12:19:31.428Z,202.50
2023-05-18T12:20:10.359Z,112.50
2023-05-18T12:21:10.282Z,196.88
2023-05-18T12:22:10.214Z,196.88
2023-05-18T12:23:10.183Z,196.88
2023-05-18T12:24:10.055Z,196.88
2023-05-18T12:25:31.108Z,196.88
2023-05-18T12:26:09.913Z,196.88
2023-05-18T12:27:09.854Z,196.88
2023-05-18T12:28:09.767Z,196.88
2023-05-18T12:29:09.700Z,196.88
2023-05-18T12:30:09.626Z,163.13
2023-05-18T12:31:30.543Z,174.38
2023-05-18T12:32:09.466Z,191.25
2023-05-18T12:33:09.410Z,56.25
2023-05-18T12:34:09.304Z,208.13
2023-05-18T12:35:09.230Z,202.50
2023-05-18T12:36:09.158Z,196.88
2023-05-18T12:37:38.060Z,191.25
2023-05-18T12:38:09.005Z,196.88
2023-05-18T12:39:08.924Z,196.88
2023-05-18T12:40:08.869Z,196.88
2023-05-18T12:41:08.813Z,191.25
2023-05-18T12:42:08.716Z,196.88
2023-05-18T12:43:29.616Z,196.88
2023-05-18T12:44:08.549Z,196.88
2023-05-18T12:45:09.528Z,196.88
2023-05-18T12:46:08.503Z,196.88
2023-05-18T12:47:08.332Z,196.88
2023-05-18T12:48:08.304Z,196.88
2023-05-18T12:49:29.186Z,196.88
2023-05-18T12:50:08.113Z,196.88
2023-05-18T12:51:08.052Z,196.88